createdAt,value
2019-01-13T00:00:39.418Z,99784.64
2019-01-13T00:03:06.256Z,99782.50
2019-01-13T00:05:33.090Z,99773.36
2019-01-13T00:08:00.172Z,99778.14
2019-01-13T00:10:26.904Z,99765.87
2019-01-13T00:12:53.818Z,99772.90
2019-01-13T00:15:20.552Z,99758.03
2019-01-13T00:17:47.291Z,99761.95
2019-01-13T00:20:14.191Z,99761.06
2019-01-13T00:22:41.208Z,99756.66
2019-01-13T00:25:08.178Z,99754.06
2019-01-13T00:27:34.997Z,99761.48
2019-01-13T00:30:01.841Z,99754.06
2019-01-13T00:32:28.593Z,99754.54
2019-01-13T00:34:55.389Z,99753.79
2019-01-13T00:37:22.123Z,99752.06
2019-01-13T00:39:48.966Z,99762.95
2019-01-13T00:42:16.122Z,99764.70
2019-01-13T00:44:43.839Z,99767.73
2019-01-13T00:47:11.506Z,99774.72
2019-01-13T00:49:38.567Z,99770.03
2019-01-13T00:52:05.399Z,99783.12
2019-01-13T00:54:32.149Z,99773.23
2019-01-13T00:56:58.964Z,99778.84
2019-01-13T00:59:25.981Z,99779.36
2019-01-13T01:02:09.313Z,99773.28
2019-01-13T01:04:36.163Z,99776.91
2019-01-13T01:07:03.401Z,99789.48
2019-01-13T01:09:30.209Z,99778.13
2019-01-13T01:11:57.075Z,99759.13
2019-01-13T01:14:24.277Z,99777.84
2019-01-13T01:16:51.490Z,99770.43
2019-01-13T01:19:18.727Z,99768.81
2019-01-13T01:21:45.761Z,99762.78
2019-01-13T01:24:12.595Z,99776.64
2019-01-13T01:26:39.443Z,99761.84
2019-01-13T01:29:06.194Z,99766.25
2019-01-13T01:31:33.108Z,99774.47
2019-01-13T01:33:59.864Z,99767.53
2019-01-13T01:36:26.994Z,99781.34
2019-01-13T01:38:53.807Z,99772.18
2019-01-13T01:41:20.848Z,99782.15
2019-01-13T01:43:48.123Z,99782.97
2019-01-13T01:46:15.156Z,99771.61
2019-01-13T01:48:41.982Z,99787.34
2019-01-13T01:51:08.842Z,99795.47
2019-01-13T01:53:36.230Z,99789.83
2019-01-13T01:56:03.400Z,99799.53
2019-01-13T01:58:30.245Z,99792.91
2019-01-13T02:00:57.366Z,99791.11
2019-01-13T02:03:36.983Z,99794.95
2019-01-13T02:06:04.195Z,99785.91
2019-01-13T02:08:31.201Z,99791.53
2019-01-13T02:10:58.274Z,99804.45
2019-01-13T02:13:25.021Z,99798.95
2019-01-13T02:15:51.773Z,99801.15
2019-01-13T02:18:18.634Z,99802.02
2019-01-13T02:20:45.432Z,99805.17
2019-01-13T02:23:12.280Z,99798.72
2019-01-13T02:25:39.379Z,99796.03
2019-01-13T02:28:06.292Z,99795.22
2019-01-13T02:30:33.026Z,99794.75
2019-01-13T02:32:59.861Z,99787.00
2019-01-13T02:35:26.957Z,99788.23
2019-01-13T02:37:53.796Z,99792.17
2019-01-13T02:40:42.319Z,99789.22
2019-01-13T02:43:09.046Z,99790.40
2019-01-13T02:45:36.060Z,99786.06
2019-01-13T02:48:02.859Z,99781.31
2019-01-13T02:50:29.584Z,99780.91
2019-01-13T02:52:56.613Z,99778.68
2019-01-13T02:55:23.807Z,99779.14
2019-01-13T02:57:50.649Z,99772.30
2019-01-13T03:00:19.775Z,99776.24
2019-01-13T03:02:46.835Z,99774.03
2019-01-13T03:05:14.051Z,99773.68
2019-01-13T03:07:40.896Z,99771.77
2019-01-13T03:10:19.434Z,99774.47
2019-01-13T03:12:46.317Z,99773.68
2019-01-13T03:15:55.167Z,99765.34
2019-01-13T03:18:22.171Z,99769.59
2019-01-13T03:20:48.913Z,99769.67
2019-01-13T03:23:15.810Z,99772.63
2019-01-13T03:25:42.948Z,99767.41
2019-01-13T03:28:09.810Z,99763.91
2019-01-13T03:30:37.037Z,99760.86
2019-01-13T03:33:03.778Z,99753.52
2019-01-13T03:35:31.337Z,99762.61
2019-01-13T03:37:58.202Z,99761.41
2019-01-13T03:40:25.038Z,99766.09
2019-01-13T03:42:52.023Z,99759.11
2019-01-13T03:45:18.928Z,99760.52
2019-01-13T03:47:45.983Z,99754.44
2019-01-13T03:50:15.062Z,99755.30
2019-01-13T03:58:11.209Z,99759.13
2019-01-13T04:00:38.522Z,99753.91
2019-01-13T04:03:05.269Z,99749.51
2019-01-13T04:05:32.143Z,99752.03
2019-01-13T04:07:59.042Z,99742.90
2019-01-13T04:10:25.775Z,99745.44
2019-01-13T04:12:52.631Z,99746.38
2019-01-13T04:15:58.497Z,99740.38
2019-01-13T04:18:25.403Z,99736.77
2019-01-13T04:20:52.520Z,99754.16
2019-01-13T04:23:19.266Z,99736.46
2019-01-13T04:25:46.075Z,99736.80
2019-01-13T04:28:12.828Z,99729.52
2019-01-13T04:30:39.458Z,99731.66
2019-01-13T04:33:06.356Z,99730.41
2019-01-13T04:35:33.254Z,99723.80
2019-01-13T04:38:00.237Z,99718.61
2019-01-13T04:40:27.202Z,99727.77
2019-01-13T04:42:54.240Z,99719.99
2019-01-13T04:45:21.675Z,99710.78
2019-01-13T04:47:48.467Z,99701.31
2019-01-13T04:50:15.450Z,99704.73
2019-01-13T04:52:42.192Z,99705.14
2019-01-13T04:55:09.540Z,99706.50
2019-01-13T04:57:36.285Z,99712.89
2019-01-13T05:00:05.986Z,99711.70
2019-01-13T05:02:32.801Z,99705.62
2019-01-13T05:05:00.265Z,99708.17
2019-01-13T05:07:27.265Z,99706.48
2019-01-13T05:09:54.159Z,99712.56
2019-01-13T05:12:20.904Z,99706.42
2019-01-13T05:14:47.960Z,99707.73
2019-01-13T05:17:14.746Z,99704.70
2019-01-13T05:19:41.484Z,99700.87
2019-01-13T05:22:08.215Z,99705.14
2019-01-13T05:24:35.024Z,99706.01
2019-01-13T05:27:02.154Z,99704.23
2019-01-13T05:29:29.221Z,99704.67
2019-01-13T05:31:56.029Z,99702.53
2019-01-13T05:34:23.161Z,99709.06
2019-01-13T05:36:50.360Z,99698.67
2019-01-13T05:39:17.259Z,99700.81
2019-01-13T05:41:43.971Z,99697.84
2019-01-13T05:44:11.143Z,99694.87
2019-01-13T05:46:38.304Z,99692.70
2019-01-13T05:49:05.076Z,99695.29
2019-01-13T05:51:32.094Z,99690.09
2019-01-13T05:53:58.975Z,99691.77
2019-01-13T05:56:25.711Z,99691.73
2019-01-13T05:58:52.453Z,99682.16
2019-01-13T06:01:19.340Z,99681.69
2019-01-13T06:03:46.202Z,99674.77
2019-01-13T06:06:32.517Z,99671.67
2019-01-13T06:08:59.474Z,99669.50
2019-01-13T06:11:26.273Z,99661.53
2019-01-13T06:13:53.450Z,99657.70
2019-01-13T06:16:20.575Z,99657.28
2019-01-13T06:18:47.564Z,99654.59
2019-01-13T06:21:14.428Z,99652.95
2019-01-13T06:23:41.473Z,99655.04
2019-01-13T06:26:09.438Z,99656.43
2019-01-13T06:28:36.297Z,99652.87
2019-01-13T06:31:03.134Z,99640.74
2019-01-13T06:33:29.874Z,99641.19
2019-01-13T06:35:56.666Z,99640.30
2019-01-13T06:38:23.513Z,99638.13
2019-01-13T06:40:50.346Z,99641.91
2019-01-13T06:43:17.145Z,99641.08
2019-01-13T06:45:43.875Z,99649.56
2019-01-13T06:48:10.982Z,99648.31
2019-01-13T06:50:37.776Z,99639.19
2019-01-13T06:53:04.615Z,99640.82
2019-01-13T06:55:31.410Z,99637.26
2019-01-13T06:57:58.318Z,99634.56
2019-01-13T07:00:26.438Z,99637.64
2019-01-13T07:02:53.304Z,99648.45
2019-01-13T07:05:20.094Z,99647.08
2019-01-13T07:07:47.227Z,99647.17
2019-01-13T07:10:14.164Z,99648.03
2019-01-13T07:12:53.747Z,99645.30
2019-01-13T07:15:20.901Z,99648.27
2019-01-13T07:17:49.628Z,99642.95
2019-01-13T07:20:18.383Z,99639.45
2019-01-13T07:22:46.150Z,99636.84
2019-01-13T07:25:12.773Z,99624.58
2019-01-13T07:27:39.574Z,99632.95
2019-01-13T07:30:10.726Z,99612.55
2019-01-13T07:32:37.489Z,99608.06
2019-01-13T07:35:05.082Z,99610.61
2019-01-13T07:37:31.905Z,99607.14
2019-01-13T07:39:59.045Z,99607.58
2019-01-13T07:42:26.226Z,99599.23
2019-01-13T07:44:53.281Z,99596.59
2019-01-13T07:47:20.024Z,99596.24
2019-01-13T07:49:46.877Z,99595.26
2019-01-13T07:52:13.720Z,99592.17
2019-01-13T07:54:40.459Z,99581.21
2019-01-13T07:57:07.413Z,99578.05
2019-01-13T07:59:34.169Z,99563.69
2019-01-13T08:02:00.898Z,99562.96
2019-01-13T08:04:27.717Z,99568.59
2019-01-13T08:06:56.376Z,99564.11
2019-01-13T08:09:23.204Z,99563.73
2019-01-13T08:11:49.901Z,99559.13
2019-01-13T08:14:16.956Z,99558.40
2019-01-13T08:16:43.690Z,99551.77
2019-01-13T08:19:10.512Z,99556.86
2019-01-13T08:21:37.355Z,99553.48
2019-01-13T08:24:04.214Z,99546.38
2019-01-13T08:26:31.027Z,99548.85
2019-01-13T08:28:58.152Z,99546.63
2019-01-13T08:31:25.305Z,99531.56
2019-01-13T08:33:52.114Z,99530.05
2019-01-13T08:36:18.844Z,99527.41
2019-01-13T08:38:45.679Z,99528.91
2019-01-13T08:41:12.600Z,99514.82
2019-01-13T08:43:39.443Z,99511.66
2019-01-13T08:46:06.277Z,99511.47
2019-01-13T08:48:33.135Z,99510.69
2019-01-13T08:50:59.876Z,99503.56
2019-01-13T08:53:26.731Z,99493.11
2019-01-13T08:55:53.546Z,99500.80
2019-01-13T08:58:20.654Z,99499.43
2019-01-13T09:00:47.709Z,99494.72
2019-01-13T09:03:14.517Z,99478.40
2019-01-13T09:05:41.480Z,99483.63
2019-01-13T09:08:08.433Z,99467.77
2019-01-13T09:10:56.749Z,99458.36
2019-01-13T09:13:23.502Z,99453.13
2019-01-13T09:15:50.309Z,99443.16
2019-01-13T09:18:17.502Z,99439.65
2019-01-13T09:20:44.243Z,99436.17
2019-01-13T09:23:11.118Z,99434.23
2019-01-13T09:25:37.919Z,99432.78
2019-01-13T09:28:06.330Z,99428.16
2019-01-13T09:30:33.069Z,99427.63
2019-01-13T09:33:00.143Z,99421.47
2019-01-13T09:35:27.711Z,99410.61
2019-01-13T09:37:54.550Z,99411.28
2019-01-13T09:40:23.557Z,99408.37
2019-01-13T09:42:50.796Z,99399.04
2019-01-13T09:45:17.522Z,99400.31
2019-01-13T09:47:44.546Z,99393.11
2019-01-13T09:50:13.265Z,99385.27
2019-01-13T09:52:40.113Z,99379.56
2019-01-13T09:55:08.543Z,99374.03
2019-01-13T09:57:35.510Z,99360.08
2019-01-13T10:02:57.231Z,99362.58
2019-01-13T10:05:23.971Z,99346.91
2019-01-13T10:07:50.821Z,99341.60
2019-01-13T10:10:17.640Z,99334.14
2019-01-13T10:12:44.759Z,99332.87
2019-01-13T10:15:13.914Z,99325.63
2019-01-13T10:17:42.924Z,99319.36
2019-01-13T10:20:10.600Z,99313.36
2019-01-13T10:22:37.717Z,99291.80
2019-01-13T10:25:05.079Z,99293.70
2019-01-13T10:27:32.145Z,99283.74
2019-01-13T10:29:58.900Z,99271.55
2019-01-13T10:32:25.740Z,99269.92
2019-01-13T10:34:52.480Z,99255.09
2019-01-13T10:37:19.325Z,99248.13
2019-01-13T10:39:46.391Z,99229.23
2019-01-13T10:42:13.239Z,99221.19
2019-01-13T10:44:39.970Z,99220.69
2019-01-13T10:47:07.252Z,99222.00
2019-01-13T10:49:34.295Z,99214.94
2019-01-13T10:52:01.419Z,99206.25
2019-01-13T10:54:28.294Z,99202.28
2019-01-13T10:56:55.338Z,99191.03
2019-01-13T10:59:22.459Z,99185.67
2019-01-13T11:01:49.353Z,99181.59
2019-01-13T11:04:16.110Z,99175.67
2019-01-13T11:06:42.954Z,99163.11
2019-01-13T11:09:12.650Z,99150.77
2019-01-13T11:11:39.763Z,99142.92
2019-01-13T11:14:06.921Z,99133.78
2019-01-13T11:16:34.024Z,99127.17
2019-01-13T11:19:00.934Z,99117.20
2019-01-13T11:21:27.678Z,99117.09
2019-01-13T11:23:54.554Z,99102.31
2019-01-13T11:26:21.541Z,99091.27
2019-01-13T11:28:49.199Z,99083.00
2019-01-13T11:31:15.993Z,99084.64
2019-01-13T11:33:43.091Z,99067.56
2019-01-13T11:36:10.245Z,99065.58
2019-01-13T11:38:37.537Z,99047.08
2019-01-13T11:41:04.273Z,99052.06
2019-01-13T11:43:31.018Z,99044.77
2019-01-13T11:45:57.922Z,99032.66
2019-01-13T11:48:24.771Z,99030.59
2019-01-13T11:50:51.498Z,99022.81
2019-01-13T11:53:18.302Z,99015.83
2019-01-13T11:55:45.174Z,99004.57
2019-01-13T11:58:18.944Z,99008.61
2019-01-13T12:00:47.466Z,98985.61
2019-01-13T12:03:17.113Z,98983.91
2019-01-13T12:05:43.298Z,98976.33
2019-01-13T12:08:10.208Z,98976.78
2019-01-13T12:10:36.947Z,98960.98
2019-01-13T12:13:04.010Z,98952.06
2019-01-13T12:15:30.809Z,98938.60
2019-01-13T12:17:57.816Z,98936.34
2019-01-13T12:20:24.966Z,98933.69
2019-01-13T12:22:52.119Z,98928.47
2019-01-13T12:26:00.264Z,98916.17
2019-01-13T12:28:27.314Z,98911.36
2019-01-13T12:30:54.339Z,98901.90
2019-01-13T12:33:24.665Z,98885.59
2019-01-13T12:35:50.002Z,98875.90
2019-01-13T12:38:16.745Z,98871.89
2019-01-13T12:40:43.575Z,98871.04
2019-01-13T12:43:10.370Z,98865.77
2019-01-13T12:45:37.110Z,98854.59
2019-01-13T12:48:04.338Z,98840.84
2019-01-13T12:50:31.228Z,98835.52
2019-01-13T12:52:58.212Z,98826.48
2019-01-13T12:55:25.053Z,98822.05
2019-01-13T12:57:52.050Z,98820.11
2019-01-13T13:00:40.208Z,98801.27
2019-01-13T13:03:07.286Z,98787.56
2019-01-13T13:05:34.298Z,98774.69
2019-01-13T13:08:01.128Z,98773.14
2019-01-13T13:10:48.600Z,98766.20
2019-01-13T13:13:15.336Z,98764.59
2019-01-13T13:15:42.174Z,98762.87
2019-01-13T13:18:09.103Z,98762.18
2019-01-13T13:20:35.844Z,98766.79
2019-01-13T13:23:44.054Z,98758.47
2019-01-13T13:26:10.788Z,98763.23
2019-01-13T13:28:37.533Z,98747.19
2019-01-13T13:31:23.946Z,98746.34
2019-01-13T13:33:50.694Z,98739.86
2019-01-13T13:36:17.538Z,98730.52
2019-01-13T13:38:44.499Z,98724.22
2019-01-13T13:41:11.387Z,98722.91
2019-01-13T13:43:37.428Z,98710.21
2019-01-13T13:46:04.631Z,98702.77
2019-01-13T13:48:31.786Z,98698.45
2019-01-13T13:50:58.643Z,98700.50
2019-01-13T13:53:25.570Z,98697.27
2019-01-13T13:55:52.598Z,98697.97
2019-01-13T13:58:20.051Z,98706.09
2019-01-13T14:00:47.215Z,98680.88
2019-01-13T14:03:13.974Z,98684.00
2019-01-13T14:05:40.715Z,98679.88
2019-01-13T14:08:07.888Z,98676.63
2019-01-13T14:10:39.652Z,98668.72
2019-01-13T14:13:06.494Z,98658.91
2019-01-13T14:15:33.398Z,98666.23
2019-01-13T14:18:00.534Z,98654.41
2019-01-13T14:20:27.293Z,98653.80
2019-01-13T14:23:14.001Z,98645.04
2019-01-13T14:25:53.537Z,98636.04
2019-01-13T14:28:20.635Z,98635.25
2019-01-13T14:30:47.623Z,98625.30
2019-01-13T14:33:14.616Z,98620.64
2019-01-13T14:35:41.625Z,98618.99
2019-01-13T14:38:08.957Z,98621.55
2019-01-13T14:40:35.728Z,98617.55
2019-01-13T14:43:02.863Z,98616.42
2019-01-13T14:45:29.927Z,98617.03
2019-01-13T14:47:57.142Z,98602.23
2019-01-13T14:51:06.343Z,98608.16
2019-01-13T14:53:33.275Z,98602.92
2019-01-13T14:56:00.612Z,98598.41
2019-01-13T14:58:27.564Z,98606.49
2019-01-13T15:00:54.452Z,98592.10
2019-01-13T15:03:21.307Z,98589.36
2019-01-13T15:05:48.213Z,98583.08
2019-01-13T15:08:15.063Z,98584.84
2019-01-13T15:10:41.833Z,98587.23
2019-01-13T15:13:09.165Z,98567.92
2019-01-13T15:15:36.056Z,98573.48
2019-01-13T15:18:03.741Z,98566.55
2019-01-13T15:20:30.561Z,98561.47
2019-01-13T15:22:57.445Z,98545.92
2019-01-13T15:25:43.878Z,98549.62
2019-01-13T15:28:10.779Z,98546.77
2019-01-13T15:30:38.451Z,98548.41
2019-01-13T15:33:06.661Z,98547.25
2019-01-13T15:35:35.130Z,98548.20
2019-01-13T15:40:56.851Z,98533.70
2019-01-13T15:43:23.606Z,98538.19
2019-01-13T15:45:50.749Z,98539.39
2019-01-13T15:48:18.075Z,98534.55
2019-01-13T15:50:44.973Z,98530.09
2019-01-13T15:53:11.859Z,98524.92
2019-01-13T15:55:38.708Z,98509.33
2019-01-13T15:58:05.663Z,98488.06
2019-01-13T16:00:34.429Z,98483.75
2019-01-13T16:03:01.534Z,98479.22
2019-01-13T16:05:28.836Z,98467.05
2019-01-13T16:07:55.820Z,98478.13
2019-01-13T16:10:23.697Z,98471.05
2019-01-13T16:12:50.575Z,98463.41
2019-01-13T16:15:17.695Z,98459.66
2019-01-13T16:17:44.827Z,98445.25
2019-01-13T16:20:32.703Z,98447.48
2019-01-13T16:22:59.648Z,98432.09
2019-01-13T16:25:26.866Z,98429.61
2019-01-13T16:27:54.266Z,98417.82
2019-01-13T16:30:22.955Z,98414.42
2019-01-13T16:32:50.098Z,98419.59
2019-01-13T16:35:16.842Z,98403.56
2019-01-13T16:37:43.741Z,98403.11
2019-01-13T16:40:12.768Z,98395.42
2019-01-13T16:42:39.583Z,98387.86
2019-01-13T16:45:07.765Z,98393.16
2019-01-13T16:47:34.652Z,98368.60
2019-01-13T16:50:01.701Z,98372.53
2019-01-13T16:52:29.035Z,98370.16
2019-01-13T16:55:17.026Z,98362.97
2019-01-13T16:57:43.973Z,98382.53
2019-01-13T17:00:13.818Z,98374.22
2019-01-13T17:02:40.716Z,98362.89
2019-01-13T17:05:09.186Z,98350.26
2019-01-13T17:07:36.048Z,98342.59
2019-01-13T17:10:24.489Z,98345.11
2019-01-13T17:12:51.766Z,98336.25
2019-01-13T17:15:24.115Z,98332.86
2019-01-13T17:17:50.910Z,98323.41
2019-01-13T17:20:19.489Z,98309.28
2019-01-13T17:22:46.674Z,98309.90
2019-01-13T17:28:10.625Z,98301.05
2019-01-13T17:30:38.187Z,98286.75
2019-01-13T17:33:18.201Z,98288.80
2019-01-13T17:35:45.327Z,98278.89
2019-01-13T17:38:12.168Z,98273.66
2019-01-13T17:40:58.693Z,98267.11
2019-01-13T17:43:26.107Z,98261.67
2019-01-13T17:45:56.614Z,98258.83
2019-01-13T17:48:23.643Z,98255.05
2019-01-13T17:50:50.686Z,98244.66
2019-01-13T17:53:17.664Z,98246.61
2019-01-13T17:55:44.600Z,98247.00
2019-01-13T17:58:11.630Z,98260.55
2019-01-13T18:00:47.847Z,98228.97
2019-01-13T18:03:18.037Z,98211.30
2019-01-13T18:05:44.933Z,98204.78
2019-01-13T18:08:11.991Z,98216.56
2019-01-13T18:10:41.305Z,98203.20
2019-01-13T18:13:35.968Z,98210.60
2019-01-13T18:16:06.537Z,98228.16
2019-01-13T18:18:35.035Z,98239.35
2019-01-13T18:21:02.961Z,98235.86
2019-01-13T18:23:31.110Z,98236.86
2019-01-13T18:25:59.379Z,98248.13
2019-01-13T18:28:26.590Z,98226.41
2019-01-13T18:30:53.446Z,98209.47
2019-01-13T18:33:20.282Z,98209.76
2019-01-13T18:35:47.254Z,98205.41
2019-01-13T18:38:14.115Z,98209.17
2019-01-13T18:40:41.361Z,98203.57
2019-01-13T18:43:08.258Z,98208.42
2019-01-13T18:45:35.501Z,98207.76
2019-01-13T18:48:02.513Z,98225.67
2019-01-13T18:50:29.507Z,98209.07
2019-01-13T18:53:15.957Z,98247.66
2019-01-13T18:55:42.694Z,98250.83
2019-01-13T18:58:09.457Z,98246.13
2019-01-13T19:00:36.358Z,98242.34
2019-01-13T19:03:03.107Z,98246.59
2019-01-13T19:05:30.203Z,98246.97
2019-01-13T19:07:58.038Z,98250.19
2019-01-13T19:10:38.087Z,98251.34
2019-01-13T19:13:44.203Z,98251.62
2019-01-13T19:16:15.546Z,98252.48
2019-01-13T19:18:42.279Z,98256.25
2019-01-13T19:21:09.414Z,98249.97
2019-01-13T19:23:36.165Z,98249.33
2019-01-13T19:26:02.999Z,98242.95
2019-01-13T19:28:29.897Z,98246.52
2019-01-13T19:30:56.630Z,98244.95
2019-01-13T19:33:23.464Z,98248.02
2019-01-13T19:35:50.409Z,98250.78
2019-01-13T19:38:29.492Z,98253.78
2019-01-13T19:40:56.347Z,98254.03
2019-01-13T19:43:23.194Z,98255.20
2019-01-13T19:45:50.200Z,98250.25
2019-01-13T19:48:17.007Z,98270.17
2019-01-13T19:51:05.207Z,98267.42
2019-01-13T19:53:32.118Z,98278.86
2019-01-13T19:55:58.990Z,98273.63
2019-01-13T19:58:25.867Z,98278.86
2019-01-13T20:00:52.946Z,98267.17
2019-01-13T20:03:20.149Z,98281.84
2019-01-13T20:05:47.010Z,98282.05
2019-01-13T20:08:14.141Z,98277.06
2019-01-13T20:10:41.164Z,98275.28
2019-01-13T20:13:08.062Z,98274.53
2019-01-13T20:15:35.068Z,98292.89
2019-01-13T20:18:01.936Z,98294.36
2019-01-13T20:20:29.185Z,98289.72
2019-01-13T20:22:56.114Z,98294.48
2019-01-13T20:25:23.293Z,98302.88
2019-01-13T20:27:50.557Z,98300.59
2019-01-13T20:30:37.111Z,98298.05
2019-01-13T20:33:04.845Z,98307.58
2019-01-13T20:35:31.687Z,98305.62
2019-01-13T20:37:58.728Z,98314.92
2019-01-13T20:40:38.943Z,98294.00
2019-01-13T20:43:06.009Z,98302.69
2019-01-13T20:45:35.613Z,98296.41
2019-01-13T20:48:02.460Z,98300.03
2019-01-13T20:50:29.355Z,98307.73
2019-01-13T20:52:56.496Z,98311.06
2019-01-13T20:55:23.235Z,98308.39
2019-01-13T20:57:50.022Z,98308.16
2019-01-13T21:00:59.101Z,98300.09
2019-01-13T21:03:25.931Z,98306.17
2019-01-13T21:05:52.682Z,98301.18
2019-01-13T21:08:19.415Z,98300.13
2019-01-13T21:10:46.513Z,98295.23
2019-01-13T21:13:13.347Z,98295.83
2019-01-13T21:16:21.169Z,98296.28
2019-01-13T21:18:48.088Z,98304.90
2019-01-13T21:21:15.226Z,98299.88
2019-01-13T21:23:42.132Z,98299.25
2019-01-13T21:26:08.882Z,98293.30
2019-01-13T21:28:35.744Z,98293.37
2019-01-13T21:31:02.537Z,98304.14
2019-01-13T21:33:29.275Z,98293.30
2019-01-13T21:35:56.014Z,98302.25
2019-01-13T21:38:22.823Z,98307.45
2019-01-13T21:40:50.058Z,98304.84
2019-01-13T21:43:16.890Z,98304.22
2019-01-13T21:45:43.988Z,98310.29
2019-01-13T21:48:10.729Z,98311.53
2019-01-13T21:50:37.754Z,98328.84
2019-01-13T21:53:04.790Z,98326.61
2019-01-13T21:55:31.620Z,98319.53
2019-01-13T21:57:58.652Z,98327.23
2019-01-13T22:00:25.925Z,98325.93
2019-01-13T22:02:53.477Z,98325.47
2019-01-13T22:05:20.318Z,98317.57
2019-01-13T22:07:47.655Z,98337.39
2019-01-13T22:10:16.059Z,98319.11
2019-01-13T22:12:42.893Z,98320.28
2019-01-13T22:15:11.067Z,98333.21
2019-01-13T22:17:37.821Z,98327.66
2019-01-13T22:20:06.439Z,98325.50
2019-01-13T22:22:33.227Z,98334.65
2019-01-13T22:24:59.997Z,98335.50
2019-01-13T22:27:26.765Z,98326.48
2019-01-13T22:29:53.555Z,98325.05
2019-01-13T22:32:20.617Z,98322.17
2019-01-13T22:34:47.253Z,98321.66
2019-01-13T22:37:14.221Z,98321.36
2019-01-13T22:39:41.753Z,98310.72
2019-01-13T22:42:08.549Z,98306.92
2019-01-13T22:44:35.374Z,98313.97
2019-01-13T22:47:02.117Z,98321.06
2019-01-13T22:49:28.848Z,98321.39
2019-01-13T22:51:55.768Z,98321.19
2019-01-13T22:54:22.500Z,98329.48
2019-01-13T22:56:49.316Z,98329.62
2019-01-13T22:59:16.216Z,98331.64
2019-01-13T23:01:44.600Z,98350.52
2019-01-13T23:04:31.987Z,98342.45
2019-01-13T23:06:58.730Z,98349.31
2019-01-13T23:09:25.763Z,98350.28
2019-01-13T23:11:52.654Z,98347.61
2019-01-13T23:14:19.756Z,98347.16
2019-01-13T23:16:46.609Z,98332.23
2019-01-13T23:19:13.795Z,98343.83
2019-01-13T23:21:40.528Z,98342.52
2019-01-13T23:24:07.537Z,98336.90
2019-01-13T23:26:34.614Z,98333.53
2019-01-13T23:29:01.460Z,98347.14
2019-01-13T23:31:28.206Z,98347.03
2019-01-13T23:33:55.317Z,98345.00
2019-01-13T23:36:22.243Z,98358.97
2019-01-13T23:38:49.102Z,98359.82
2019-01-13T23:41:15.914Z,98372.75
2019-01-13T23:43:43.202Z,98367.77
2019-01-13T23:46:10.347Z,98379.00
2019-01-13T23:48:37.703Z,98390.58
2019-01-13T23:51:04.538Z,98385.13
2019-01-13T23:53:31.378Z,98387.57
2019-01-13T23:55:58.172Z,98394.42
2019-01-13T23:58:24.918Z,98405.63
